Saline County Regional Airport
KSUZ : rendu visible

Aérodrome :











RETROUVEZ-NOUS SUR...

 
LOGIN :

S'inscrire | Disclaimer

   EN    FR    IT 

 









Légende :    VFR   VFR Marginal   IFR   IFR Intensif   IFR Très Intensif
Visi : 
Plafond : 
>= 8 km
>= 3000ft
5 à 8 km
1000 à 3000 ft
1500m à 5 km
500 à 1000 ft
800 à 1500m
200 à 500 ft
< 800m
< 200 ft
Symboles :   Orages  Brouillard  Fortes neiges  Fortes précipitations  Vent > 20 kt






- Altitude de l'aérodrome : 390 ft


KSUZ - Saline County Regional

DERNIER METAR :
  • 260755Z AUTO 00000KT 10SM OVC050 07/06 A3008 RMK A01

METARs EXPIRÉS :
  • 260735Z AUTO 00000KT 10SM OVC050 07/06 A3008 RMK A01
  • 260715Z AUTO 00000KT 9SM FEW030 FEW048 OVC055 07/06 A3008 RMK A01
  • 260655Z AUTO 00000KT 5SM BR FEW030 SCT047 OVC060 07/06 A3009 RMK A01
  • 260635Z AUTO 04005KT 4SM BR FEW004 SCT029 BKN055 07/06 A3010 RMK A01
  • 260615Z AUTO 00000KT 10SM OVC060 07/06 A3011 RMK A01
  • 260555Z AUTO 00000KT 10SM FEW030 BKN060 OVC070 07/06 A3010 RMK A01
  • 260535Z AUTO 00000KT 10SM FEW009 BKN070 OVC085 07/05 A3010 RMK A01
  • 260515Z AUTO 00000KT 10SM FEW022 SCT049 BKN060 08/05 A3009 RMK A01
  • 260455Z AUTO 03003KT 10SM FEW044 FEW055 OVC070 07/06 A3009 RMK A01

TAF N/A



MET'MAP, la Météo Aéronautique d'un coup d'oeil ! - Copyright ORBIFLY Décembre 2007 - Disclaimer

ORBIFLY MET'MAP TEAM :

Programmation & Développement : Alexandra Zaïnal
Sur une idée originale de : Baudouin d'Aumeries
Assistance à la programmation : Marc-Olivier Méhu
Soutien technique & logistique : Manuel Goepfert

Contact : metmap@orbifly.com




SOURCES & CREDITS :

   NOAA       Earth
Advisory